createdAt,value
2019-05-17T00:01:57.513Z,7.24
2019-05-17T00:04:22.555Z,7.17
2019-05-17T00:06:48.423Z,7.15
2019-05-17T00:09:14.257Z,7.04
2019-05-17T00:11:40.097Z,6.95
2019-05-17T00:14:06.427Z,6.95
2019-05-17T00:16:32.387Z,7.01
2019-05-17T00:18:58.322Z,6.91
2019-05-17T00:21:24.176Z,6.95
2019-05-17T00:23:50.005Z,6.95
2019-05-17T00:26:16.426Z,6.94
2019-05-17T00:28:42.516Z,6.85
2019-05-17T00:31:08.372Z,6.85
2019-05-17T00:33:36.515Z,6.79
2019-05-17T00:36:01.962Z,6.75
2019-05-17T00:38:27.805Z,6.73
2019-05-17T00:40:53.627Z,6.71
2019-05-17T00:43:19.485Z,6.73
2019-05-17T00:45:46.844Z,6.74
2019-05-17T00:48:12.883Z,6.75
2019-05-17T00:50:38.837Z,6.73
2019-05-17T00:53:06.941Z,6.71
2019-05-17T00:55:32.519Z,6.70
2019-05-17T00:57:58.351Z,6.70
2019-05-17T01:00:24.243Z,6.69
2019-05-17T01:02:50.053Z,6.70
2019-05-17T01:05:17.093Z,6.67
2019-05-17T01:07:43.377Z,6.64
2019-05-17T01:10:09.640Z,6.64
2019-05-17T01:12:36.555Z,6.69
2019-05-17T01:15:07.456Z,6.68
2019-05-17T01:17:33.378Z,6.68
2019-05-17T01:19:59.228Z,6.69
2019-05-17T01:22:26.260Z,6.70
2019-05-17T01:24:52.237Z,6.68
2019-05-17T01:27:18.144Z,6.68
2019-05-17T01:29:43.993Z,6.72
2019-05-17T01:32:09.834Z,6.72
2019-05-17T01:34:37.582Z,6.78
2019-05-17T01:37:03.742Z,6.91
2019-05-17T01:39:29.597Z,6.74
2019-05-17T01:41:57.345Z,6.79
2019-05-17T01:44:23.319Z,6.75
2019-05-17T01:46:49.171Z,6.75
2019-05-17T01:49:16.505Z,6.76
2019-05-17T01:51:42.655Z,6.77
2019-05-17T01:54:08.504Z,6.77
2019-05-17T01:56:36.798Z,6.83
2019-05-17T01:59:02.383Z,6.84
2019-05-17T02:01:28.236Z,6.89
2019-05-17T02:03:54.075Z,6.89
2019-05-17T02:06:19.916Z,6.86
2019-05-17T02:08:47.574Z,6.87
2019-05-17T02:11:14.016Z,7.04
2019-05-17T02:13:39.846Z,7.04
2019-05-17T02:16:07.165Z,7.04
2019-05-17T02:18:33.234Z,6.85
2019-05-17T02:20:59.080Z,6.85
2019-05-17T02:23:27.033Z,6.77
2019-05-17T02:25:52.805Z,6.72
2019-05-17T02:28:18.732Z,6.72
2019-05-17T02:30:44.671Z,6.73
2019-05-17T02:33:12.636Z,6.69
2019-05-17T02:35:38.690Z,6.65
2019-05-17T02:38:04.532Z,6.58
2019-05-17T02:40:33.500Z,6.56
2019-05-17T02:42:58.127Z,6.73
2019-05-17T02:45:24.080Z,6.73
2019-05-17T02:47:49.927Z,6.90
2019-05-17T02:50:16.986Z,6.86
2019-05-17T02:52:43.934Z,6.85
2019-05-17T02:55:12.783Z,6.79
2019-05-17T02:57:37.961Z,6.63
2019-05-17T03:00:05.040Z,6.48
2019-05-17T03:02:33.858Z,6.26
2019-05-17T03:04:58.618Z,6.29
2019-05-17T03:07:24.474Z,6.43
2019-05-17T03:09:53.204Z,6.50
2019-05-17T03:12:18.083Z,6.47
2019-05-17T03:14:43.912Z,6.44
2019-05-17T03:17:09.763Z,6.42
2019-05-17T03:19:35.589Z,6.39
2019-05-17T03:22:07.249Z,6.41
2019-05-17T03:24:29.221Z,6.41
2019-05-17T03:26:55.062Z,6.43
2019-05-17T03:29:22.644Z,6.43
2019-05-17T03:31:57.984Z,6.44
2019-05-17T03:34:25.807Z,6.30
2019-05-17T03:36:47.720Z,6.30
2019-05-17T03:39:13.659Z,6.33
2019-05-17T03:41:42.625Z,6.38
2019-05-17T03:44:07.219Z,6.47
2019-05-17T03:46:33.512Z,6.37
2019-05-17T03:48:59.500Z,6.39
2019-05-17T03:51:25.454Z,6.43
2019-05-17T03:53:53.077Z,6.40
2019-05-17T03:56:22.189Z,6.41
2019-05-17T03:58:46.826Z,6.41
2019-05-17T04:01:14.065Z,6.46
2019-05-17T04:03:43.401Z,6.39
2019-05-17T04:06:08.125Z,6.48
2019-05-17T04:08:33.949Z,6.48
2019-05-17T04:11:16.307Z,6.42
2019-05-17T04:13:27.571Z,6.45
2019-05-17T04:15:53.455Z,6.53
2019-05-17T04:18:19.344Z,6.49
2019-05-17T04:20:45.331Z,6.47
2019-05-17T04:23:12.760Z,6.46
2019-05-17T04:25:39.100Z,6.62
2019-05-17T04:28:05.017Z,6.62
2019-05-17T04:30:32.674Z,6.61
2019-05-17T04:32:58.946Z,6.70
2019-05-17T04:35:24.885Z,6.81
2019-05-17T04:37:53.166Z,6.88
2019-05-17T04:40:18.506Z,6.94
2019-05-17T04:42:44.685Z,6.94
2019-05-17T04:45:12.754Z,6.84
2019-05-17T04:47:38.584Z,6.80
2019-05-17T04:50:04.725Z,6.80
2019-05-17T04:52:33.627Z,6.83
2019-05-17T04:54:58.397Z,6.86
2019-05-17T04:57:24.257Z,6.86
2019-05-17T04:59:52.336Z,6.91
2019-05-17T05:02:17.906Z,6.94
2019-05-17T05:04:44.331Z,6.90
2019-05-17T05:07:10.204Z,7.00
2019-05-17T05:09:36.490Z,7.00
2019-05-17T05:12:05.820Z,6.98
2019-05-17T05:14:32.743Z,6.97
2019-05-17T05:16:57.844Z,7.00
2019-05-17T05:19:23.680Z,7.11
2019-05-17T05:21:51.899Z,7.15
2019-05-17T05:24:17.295Z,7.28
2019-05-17T05:26:43.159Z,7.28
2019-05-17T05:29:08.992Z,7.41
2019-05-17T05:31:34.880Z,7.53
2019-05-17T05:34:01.835Z,7.68
2019-05-17T05:36:27.957Z,7.96
2019-05-17T05:38:53.829Z,7.96
2019-05-17T05:41:19.659Z,8.20
2019-05-17T05:43:45.526Z,8.33
2019-05-17T05:46:11.741Z,8.47
2019-05-17T05:48:37.768Z,8.70
2019-05-17T05:51:05.341Z,8.70
2019-05-17T05:53:32.532Z,8.80
2019-05-17T05:55:58.552Z,8.80
2019-05-17T05:58:24.471Z,8.88
2019-05-17T06:00:52.927Z,9.00
2019-05-17T06:03:18.218Z,9.08
2019-05-17T06:05:44.166Z,9.11
2019-05-17T06:08:12.335Z,9.26
2019-05-17T06:10:39.491Z,9.33
2019-05-17T06:13:05.678Z,9.44
2019-05-17T06:15:32.046Z,9.44
2019-05-17T06:17:58.106Z,9.71
2019-05-17T06:20:24.055Z,9.71
2019-05-17T06:22:51.810Z,9.82
2019-05-17T06:25:17.673Z,9.87
2019-05-17T06:27:43.510Z,9.85
2019-05-17T06:30:12.283Z,9.95
2019-05-17T06:32:37.914Z,10.06
2019-05-17T06:35:04.181Z,10.06
2019-05-17T06:37:31.774Z,10.17
2019-05-17T06:39:57.829Z,10.32
2019-05-17T06:42:37.359Z,10.32
2019-05-17T06:44:52.338Z,10.52
2019-05-17T06:47:18.298Z,10.83
2019-05-17T06:49:44.135Z,10.83
2019-05-17T06:52:11.637Z,11.03
2019-05-17T06:54:37.643Z,11.14
2019-05-17T06:57:03.524Z,11.00
2019-05-17T06:59:29.324Z,10.92
2019-05-17T07:01:55.199Z,10.73
2019-05-17T07:04:21.037Z,10.80
2019-05-17T07:06:49.558Z,10.83
2019-05-17T07:09:15.563Z,10.77
2019-05-17T07:11:41.413Z,10.79
2019-05-17T07:14:09.265Z,10.78
2019-05-17T07:16:35.018Z,10.98
2019-05-17T07:19:00.838Z,11.03
2019-05-17T07:21:26.799Z,11.16
2019-05-17T07:23:52.619Z,11.20
2019-05-17T07:26:19.730Z,11.20
2019-05-17T07:28:45.772Z,11.15
2019-05-17T07:31:11.595Z,11.10
2019-05-17T07:33:39.705Z,11.06
2019-05-17T07:36:05.215Z,11.17
2019-05-17T07:38:31.074Z,11.17
2019-05-17T07:40:59.366Z,11.23
2019-05-17T07:43:24.748Z,11.40
2019-05-17T07:45:50.591Z,11.73
2019-05-17T07:48:16.447Z,12.07
2019-05-17T07:50:42.883Z,11.95
2019-05-17T07:53:10.424Z,12.17
2019-05-17T07:55:36.499Z,12.17
2019-05-17T07:58:02.472Z,11.98
2019-05-17T08:00:30.498Z,12.09
2019-05-17T08:02:56.066Z,12.08
2019-05-17T08:05:21.913Z,11.99
2019-05-17T08:07:49.857Z,12.00
2019-05-17T08:10:15.834Z,12.13
2019-05-17T08:12:41.690Z,12.32
2019-05-17T08:15:10.448Z,12.55
2019-05-17T08:17:35.915Z,12.56
2019-05-17T08:20:03.696Z,12.72
2019-05-17T08:22:29.534Z,13.04
2019-05-17T08:24:55.389Z,12.98
2019-05-17T08:27:21.235Z,12.69
2019-05-17T08:29:47.068Z,12.91
2019-05-17T08:32:12.908Z,12.68
2019-05-17T08:34:40.121Z,12.76
2019-05-17T08:37:06.115Z,12.82
2019-05-17T08:39:31.972Z,13.11
2019-05-17T08:41:57.810Z,13.42
2019-05-17T08:44:23.667Z,12.96
2019-05-17T08:46:50.086Z,13.15
2019-05-17T08:49:16.057Z,13.02
2019-05-17T08:51:41.993Z,13.00
2019-05-17T08:54:10.149Z,13.08
2019-05-17T08:56:35.603Z,13.08
2019-05-17T08:59:02.292Z,13.28
2019-05-17T09:01:30.201Z,13.03
2019-05-17T09:03:55.876Z,13.00
2019-05-17T09:06:21.733Z,12.99
2019-05-17T09:08:49.817Z,13.14
2019-05-17T09:11:15.349Z,13.10
2019-05-17T09:13:54.352Z,13.43
2019-05-17T09:16:10.704Z,13.23
2019-05-17T09:18:36.716Z,13.69
2019-05-17T09:21:02.660Z,13.63
2019-05-17T09:23:30.466Z,13.64
2019-05-17T09:25:56.284Z,13.57
2019-05-17T09:28:22.151Z,13.66
2019-05-17T09:30:50.526Z,13.88
2019-05-17T09:33:15.777Z,13.88
2019-05-17T09:35:41.645Z,13.88
2019-05-17T09:38:09.853Z,13.74
2019-05-17T09:40:36.512Z,13.71
2019-05-17T09:43:02.352Z,13.59
2019-05-17T09:45:30.602Z,13.70
2019-05-17T09:47:56.155Z,13.58
2019-05-17T09:50:22.116Z,13.66
2019-05-17T09:52:49.478Z,13.83
2019-05-17T09:55:15.536Z,13.97
2019-05-17T09:57:41.383Z,13.44
2019-05-17T10:00:09.897Z,13.79
2019-05-17T10:02:36.107Z,13.56
2019-05-17T10:05:04.654Z,13.68
2019-05-17T10:07:30.503Z,13.58
2019-05-17T10:09:56.352Z,13.86
2019-05-17T10:12:22.358Z,13.98
2019-05-17T10:14:49.830Z,13.89
2019-05-17T10:17:15.939Z,13.78
2019-05-17T10:19:41.892Z,13.64
2019-05-17T10:22:10.175Z,13.70
2019-05-17T10:24:38.958Z,13.70
2019-05-17T10:27:03.401Z,13.87
2019-05-17T10:29:29.959Z,13.86
2019-05-17T10:31:55.963Z,14.08
2019-05-17T10:34:21.831Z,14.07
2019-05-17T10:36:47.689Z,14.23
2019-05-17T10:39:13.546Z,14.45
2019-05-17T10:41:40.587Z,14.63
2019-05-17T10:44:06.833Z,14.43
2019-05-17T10:46:32.693Z,14.48
2019-05-17T10:48:58.574Z,14.39
2019-05-17T10:51:24.410Z,14.25
2019-05-17T10:53:51.329Z,14.26
2019-05-17T10:56:19.543Z,14.39
2019-05-17T10:58:45.178Z,15.00
2019-05-17T11:01:11.132Z,15.54
2019-05-17T11:03:39.578Z,15.19
2019-05-17T11:06:04.949Z,15.26
2019-05-17T11:08:30.900Z,15.25
2019-05-17T11:10:56.790Z,15.41
2019-05-17T11:13:22.661Z,15.43
2019-05-17T11:15:48.622Z,15.00
2019-05-17T11:18:14.583Z,15.48
2019-05-17T11:20:40.425Z,15.96
2019-05-17T11:23:06.405Z,16.07
2019-05-17T11:25:32.314Z,16.12
2019-05-17T11:27:58.323Z,16.18
2019-05-17T11:30:24.169Z,16.76
2019-05-17T11:32:50.106Z,16.75
2019-05-17T11:35:16.135Z,16.75
2019-05-17T11:37:42.210Z,16.72
2019-05-17T11:40:08.565Z,16.49
2019-05-17T11:42:34.430Z,16.72
2019-05-17T11:45:00.372Z,16.77
2019-05-17T11:47:26.212Z,17.11
2019-05-17T11:49:52.154Z,17.54
2019-05-17T11:52:18.107Z,17.37
2019-05-17T11:54:44.034Z,17.41
2019-05-17T11:57:12.307Z,17.61
2019-05-17T11:59:37.660Z,17.57
2019-05-17T12:02:03.614Z,17.31
2019-05-17T12:04:29.493Z,17.07
2019-05-17T12:06:55.496Z,17.81
2019-05-17T12:09:36.210Z,17.43
2019-05-17T12:11:49.203Z,17.30
2019-05-17T12:14:15.168Z,17.05
2019-05-17T12:16:41.202Z,16.71
2019-05-17T12:19:07.194Z,17.80
2019-05-17T12:21:33.122Z,17.87
2019-05-17T12:23:59.098Z,17.63
2019-05-17T12:26:25.371Z,17.30
2019-05-17T12:28:51.239Z,17.31
2019-05-17T12:31:17.425Z,17.14
2019-05-17T12:33:43.408Z,17.49
2019-05-17T12:36:09.291Z,17.72
2019-05-17T12:38:35.186Z,16.82
2019-05-17T12:41:01.121Z,17.06
2019-05-17T12:43:27.016Z,16.99
2019-05-17T12:46:00.742Z,17.72
2019-05-17T12:48:20.670Z,18.18
2019-05-17T12:50:46.523Z,17.98
2019-05-17T12:53:12.375Z,17.77
2019-05-17T12:55:38.226Z,17.35
2019-05-17T12:58:04.174Z,17.17
2019-05-17T13:00:30.165Z,17.15
2019-05-17T13:02:56.015Z,17.42
2019-05-17T13:05:21.900Z,18.40
2019-05-17T13:07:47.745Z,18.89
2019-05-17T13:10:13.876Z,19.02
2019-05-17T13:12:40.003Z,18.92
2019-05-17T13:15:06.489Z,18.73
2019-05-17T13:17:32.426Z,19.19
2019-05-17T13:19:58.298Z,18.84
2019-05-17T13:22:24.197Z,18.24
2019-05-17T13:24:50.074Z,18.57
2019-05-17T13:27:16.132Z,19.36
2019-05-17T13:29:42.106Z,19.15
2019-05-17T13:32:08.192Z,18.23
2019-05-17T13:34:34.097Z,17.76
2019-05-17T13:37:00.019Z,18.56
2019-05-17T13:39:25.872Z,19.40
2019-05-17T13:41:51.751Z,19.03
2019-05-17T13:44:17.588Z,19.36
2019-05-17T13:46:43.592Z,19.20
2019-05-17T13:49:09.473Z,19.73
2019-05-17T13:51:35.451Z,19.81
2019-05-17T13:54:01.403Z,20.03
2019-05-17T13:56:27.387Z,19.71
2019-05-17T13:58:53.392Z,19.75
2019-05-17T14:01:19.340Z,19.98
2019-05-17T14:03:45.175Z,20.02
2019-05-17T14:06:11.045Z,20.31
2019-05-17T14:08:36.909Z,20.86
2019-05-17T14:11:02.931Z,21.13
2019-05-17T14:13:28.887Z,20.56
2019-05-17T14:15:54.745Z,19.91
2019-05-17T14:18:20.661Z,20.37
2019-05-17T14:20:46.540Z,20.05
2019-05-17T14:23:12.408Z,19.87
2019-05-17T14:25:38.695Z,19.09
2019-05-17T14:28:04.909Z,19.23
2019-05-17T14:30:30.765Z,19.44
2019-05-17T14:32:56.650Z,20.15
2019-05-17T14:35:22.504Z,20.05
2019-05-17T14:37:48.383Z,19.57
2019-05-17T14:40:14.522Z,20.12
2019-05-17T14:42:40.803Z,19.58
2019-05-17T14:45:06.758Z,19.44
2019-05-17T14:47:32.713Z,19.58
2019-05-17T14:50:00.510Z,20.00
2019-05-17T14:52:26.570Z,19.94
2019-05-17T14:54:52.547Z,19.86
2019-05-17T14:57:18.389Z,19.73
2019-05-17T14:59:44.249Z,19.57
2019-05-17T15:02:10.127Z,19.34
2019-05-17T15:04:35.991Z,19.87
2019-05-17T15:07:01.883Z,19.87
2019-05-17T15:09:28.138Z,19.96
2019-05-17T15:11:54.501Z,19.68
2019-05-17T15:16:49.845Z,20.26
2019-05-17T15:19:15.784Z,20.35
2019-05-17T15:21:41.745Z,20.65
2019-05-17T15:24:07.602Z,19.83
2019-05-17T15:26:35.693Z,19.72
2019-05-17T15:29:01.422Z,19.81
2019-05-17T15:31:27.396Z,20.17
2019-05-17T15:33:53.357Z,19.40
2019-05-17T15:36:19.328Z,19.00
2019-05-17T15:38:45.179Z,20.24
2019-05-17T15:41:11.043Z,19.86
2019-05-17T15:43:36.989Z,19.37
2019-05-17T15:46:03.032Z,20.60
2019-05-17T15:48:28.889Z,20.58
2019-05-17T15:50:54.840Z,20.49
2019-05-17T15:53:20.807Z,20.87
2019-05-17T15:55:46.850Z,20.66
2019-05-17T15:58:12.820Z,20.47
2019-05-17T16:00:38.766Z,21.05
2019-05-17T16:03:04.743Z,20.70
2019-05-17T16:05:30.677Z,19.37
2019-05-17T16:07:56.568Z,19.16
2019-05-17T16:10:22.467Z,19.88
2019-05-17T16:13:01.925Z,19.32
2019-05-17T16:15:16.210Z,18.71
2019-05-17T16:17:42.276Z,18.12
2019-05-17T16:20:08.395Z,17.44
2019-05-17T16:22:34.413Z,17.54
2019-05-17T16:25:01.420Z,17.71
2019-05-17T16:27:27.353Z,17.46
2019-05-17T16:29:53.336Z,17.10
2019-05-17T16:32:19.390Z,16.99
2019-05-17T16:34:45.439Z,17.08
2019-05-17T16:37:11.407Z,16.99
2019-05-17T16:39:37.386Z,17.11
2019-05-17T16:42:03.365Z,17.14
2019-05-17T16:44:29.312Z,17.08
2019-05-17T16:46:55.177Z,16.98
2019-05-17T16:49:21.167Z,16.84
2019-05-17T16:51:47.123Z,16.89
2019-05-17T16:54:13.092Z,16.71
2019-05-17T16:56:39.111Z,16.79
2019-05-17T16:59:04.947Z,16.62
2019-05-17T17:01:31.016Z,16.76
2019-05-17T17:03:57.038Z,16.60
2019-05-17T17:06:22.877Z,16.50
2019-05-17T17:08:48.768Z,16.64
2019-05-17T17:11:14.784Z,16.36
2019-05-17T17:13:40.724Z,16.40
2019-05-17T17:16:06.678Z,16.35
2019-05-17T17:18:32.773Z,16.43
2019-05-17T17:20:58.700Z,16.42
2019-05-17T17:23:24.703Z,16.46
2019-05-17T17:25:50.588Z,16.22
2019-05-17T17:28:16.534Z,16.22
2019-05-17T17:30:42.373Z,16.24
2019-05-17T17:33:08.323Z,16.23
2019-05-17T17:35:34.277Z,16.25
2019-05-17T17:38:00.386Z,16.19
2019-05-17T17:40:26.567Z,16.23
2019-05-17T17:42:52.433Z,16.06
2019-05-17T17:45:20.506Z,15.93
2019-05-17T17:47:46.603Z,15.91
2019-05-17T17:50:12.897Z,15.73
2019-05-17T17:52:38.942Z,15.79
2019-05-17T17:55:05.027Z,15.75
2019-05-17T17:57:30.944Z,15.80
2019-05-17T17:59:57.063Z,15.81
2019-05-17T18:02:23.845Z,15.81
2019-05-17T18:04:49.858Z,15.74
2019-05-17T18:07:15.718Z,15.61
2019-05-17T18:09:41.635Z,15.33
2019-05-17T18:12:07.649Z,15.56
2019-05-17T18:14:33.668Z,15.63
2019-05-17T18:16:59.645Z,15.51
2019-05-17T18:19:25.546Z,15.47
2019-05-17T18:21:51.410Z,15.50
2019-05-17T18:24:17.376Z,15.38
2019-05-17T18:26:43.234Z,15.15
2019-05-17T18:29:09.216Z,15.07
2019-05-17T18:31:35.200Z,15.06
2019-05-17T18:34:01.172Z,14.95
2019-05-17T18:36:27.240Z,14.96
2019-05-17T18:38:53.403Z,14.89
2019-05-17T18:41:19.379Z,14.80
2019-05-17T18:43:45.244Z,14.65
2019-05-17T18:46:11.286Z,14.53
2019-05-17T18:48:37.263Z,14.56
2019-05-17T18:51:03.124Z,14.45
2019-05-17T18:53:28.984Z,14.36
2019-05-17T18:55:54.843Z,14.30
2019-05-17T18:58:20.710Z,14.24
2019-05-17T19:00:46.567Z,14.11
2019-05-17T19:03:12.641Z,13.95
2019-05-17T19:05:38.611Z,13.99
2019-05-17T19:08:04.571Z,14.03
2019-05-17T19:10:30.457Z,13.95
2019-05-17T19:12:56.438Z,13.80
2019-05-17T19:15:22.507Z,13.70
2019-05-17T19:17:48.451Z,13.54
2019-05-17T19:20:14.633Z,13.48
2019-05-17T19:22:41.240Z,13.46
2019-05-17T19:25:07.947Z,13.43
2019-05-17T19:27:34.185Z,13.47
2019-05-17T19:30:00.066Z,13.24
2019-05-17T19:32:25.932Z,13.26
2019-05-17T19:34:51.807Z,13.24
2019-05-17T19:39:58.094Z,13.14
2019-05-17T19:42:24.003Z,13.03
2019-05-17T19:44:58.671Z,12.99
2019-05-17T19:47:17.743Z,13.08
2019-05-17T19:49:43.623Z,13.02
2019-05-17T19:52:09.493Z,13.02
2019-05-17T19:54:35.385Z,12.99
2019-05-17T19:57:01.262Z,12.93
2019-05-17T19:59:27.250Z,12.93
2019-05-17T20:01:53.292Z,12.90
2019-05-17T20:04:19.179Z,12.94
2019-05-17T20:06:45.005Z,12.89
2019-05-17T20:09:12.783Z,13.02
2019-05-17T20:11:38.625Z,12.98
2019-05-17T20:14:04.613Z,12.98
2019-05-17T20:16:30.562Z,12.86
2019-05-17T20:18:56.516Z,12.66
2019-05-17T20:21:22.679Z,12.51
2019-05-17T20:23:48.554Z,12.40
2019-05-17T20:26:14.409Z,12.38
2019-05-17T20:28:40.374Z,12.12
2019-05-17T20:31:06.449Z,12.23
2019-05-17T20:33:32.389Z,12.12
2019-05-17T20:35:58.244Z,12.12
2019-05-17T20:38:24.173Z,12.10
2019-05-17T20:40:50.127Z,11.98
2019-05-17T20:43:16.070Z,11.99
2019-05-17T20:45:42.028Z,11.90
2019-05-17T20:48:07.851Z,11.85
2019-05-17T20:50:33.914Z,11.69
2019-05-17T20:52:59.899Z,11.76
2019-05-17T20:55:27.359Z,11.76
2019-05-17T20:57:53.415Z,11.64
2019-05-17T21:00:19.451Z,11.49
2019-05-17T21:02:45.386Z,11.33
2019-05-17T21:05:14.649Z,11.04
2019-05-17T21:07:40.586Z,11.14
2019-05-17T21:10:06.759Z,11.15
2019-05-17T21:12:32.599Z,11.05
2019-05-17T21:14:58.551Z,10.93
2019-05-17T21:17:24.415Z,10.87
2019-05-17T21:19:50.266Z,10.74
2019-05-17T21:22:16.117Z,10.55
2019-05-17T21:24:42.112Z,10.57
2019-05-17T21:27:07.961Z,10.41
2019-05-17T21:29:33.791Z,10.31
2019-05-17T21:31:59.766Z,10.27
2019-05-17T21:34:25.609Z,10.15
2019-05-17T21:36:51.668Z,10.16
2019-05-17T21:39:17.632Z,10.04
2019-05-17T21:41:43.588Z,9.96
2019-05-17T21:44:09.542Z,10.04
2019-05-17T21:46:35.423Z,10.09
2019-05-17T21:49:01.354Z,10.09
2019-05-17T21:51:27.327Z,10.08
2019-05-17T21:53:53.187Z,10.04
2019-05-17T21:56:19.060Z,9.89
2019-05-17T21:58:44.905Z,9.81
2019-05-17T22:01:15.214Z,10.02
2019-05-17T22:03:41.268Z,9.96
2019-05-17T22:06:07.620Z,9.96
2019-05-17T22:08:33.592Z,10.06
2019-05-17T22:10:59.665Z,10.06
2019-05-17T22:13:25.717Z,10.11
2019-05-17T22:15:51.665Z,10.08
2019-05-17T22:18:18.752Z,10.08
2019-05-17T22:20:44.659Z,10.19
2019-05-17T22:23:10.638Z,10.13
2019-05-17T22:25:36.568Z,10.13
2019-05-17T22:28:02.531Z,10.13
2019-05-17T22:30:28.466Z,10.17
2019-05-17T22:32:54.413Z,10.11
2019-05-17T22:35:20.350Z,10.00
2019-05-17T22:37:46.307Z,10.06
2019-05-17T22:40:12.626Z,10.00
2019-05-17T22:42:39.508Z,9.78
2019-05-17T22:45:05.861Z,9.83
2019-05-17T22:47:31.708Z,9.87
2019-05-17T22:49:57.666Z,9.86
2019-05-17T22:52:23.686Z,9.90
2019-05-17T22:54:49.556Z,9.84
2019-05-17T22:57:15.418Z,9.84
2019-05-17T22:59:43.171Z,9.59
2019-05-17T23:02:09.043Z,9.06
2019-05-17T23:04:35.008Z,9.06
2019-05-17T23:07:00.953Z,9.27
2019-05-17T23:09:26.914Z,9.25
2019-05-17T23:11:52.754Z,9.17
2019-05-17T23:14:18.615Z,9.24
2019-05-17T23:16:51.538Z,9.04
2019-05-17T23:19:12.301Z,9.02
2019-05-17T23:21:38.319Z,9.23
2019-05-17T23:24:04.678Z,9.00
2019-05-17T23:26:30.824Z,9.00
2019-05-17T23:28:56.674Z,9.08
2019-05-17T23:31:22.525Z,9.08
2019-05-17T23:33:48.457Z,9.09
2019-05-17T23:36:14.404Z,9.08
2019-05-17T23:38:40.338Z,9.12
2019-05-17T23:41:06.286Z,9.06
2019-05-17T23:43:32.235Z,8.58
2019-05-17T23:45:58.092Z,8.67
2019-05-17T23:48:23.942Z,8.59
2019-05-17T23:50:49.781Z,8.72
2019-05-17T23:53:15.714Z,8.77
2019-05-17T23:55:41.775Z,8.48
2019-05-17T23:58:07.737Z,8.02
